Aviation Digital Data Service (ADDS)

Output produced by METARs form (0424 UTC 02 April 2015)
found at http://aviationweather.gov/adds/metars/
 
KFAY 012320Z 0200/0224 VRB04KT P6SM FEW250 
     FM021500 21012G18KT P6SM SCT250